sensor_id;sensor_type;location;lat;lon;timestamp;P1;durP1;ratioP1;P2;durP2;ratioP2
70444;SDS011;57902;49.638;11.070;2023-03-04T00:01:50;20.35;;;7.28;;
70444;SDS011;57902;49.638;11.070;2023-03-04T00:04:16;17.85;;;6.65;;
70444;SDS011;57902;49.638;11.070;2023-03-04T00:06:43;24.73;;;7.65;;
70444;SDS011;57902;49.638;11.070;2023-03-04T00:09:09;22.70;;;7.50;;
70444;SDS011;57902;49.638;11.070;2023-03-04T00:11:36;19.83;;;6.80;;
70444;SDS011;57902;49.638;11.070;2023-03-04T00:14:02;21.08;;;6.88;;
70444;SDS011;57902;49.638;11.070;2023-03-04T00:16:29;18.60;;;7.03;;
70444;SDS011;57902;49.638;11.070;2023-03-04T00:18:55;22.17;;;7.05;;
70444;SDS011;57902;49.638;11.070;2023-03-04T00:21:24;23.02;;;7.63;;
70444;SDS011;57902;49.638;11.070;2023-03-04T00:23:51;19.27;;;6.88;;
70444;SDS011;57902;49.638;11.070;2023-03-04T00:26:17;23.30;;;6.75;;
70444;SDS011;57902;49.638;11.070;2023-03-04T00:28:44;18.60;;;6.50;;
70444;SDS011;57902;49.638;11.070;2023-03-04T00:31:10;19.02;;;6.93;;
70444;SDS011;57902;49.638;11.070;2023-03-04T00:33:37;16.85;;;6.28;;
70444;SDS011;57902;49.638;11.070;2023-03-04T00:36:05;16.25;;;5.93;;
70444;SDS011;57902;49.638;11.070;2023-03-04T00:38:32;18.00;;;6.35;;
70444;SDS011;57902;49.638;11.070;2023-03-04T00:40:58;19.35;;;6.57;;
70444;SDS011;57902;49.638;11.070;2023-03-04T00:43:25;21.08;;;7.25;;
70444;SDS011;57902;49.638;11.070;2023-03-04T00:45:51;19.30;;;6.60;;
70444;SDS011;57902;49.638;11.070;2023-03-04T00:48:18;19.63;;;7.05;;
70444;SDS011;57902;49.638;11.070;2023-03-04T00:50:47;16.70;;;6.13;;
70444;SDS011;57902;49.638;11.070;2023-03-04T00:53:14;19.80;;;6.38;;
70444;SDS011;57902;49.638;11.070;2023-03-04T00:55:40;18.70;;;6.82;;
70444;SDS011;57902;49.638;11.070;2023-03-04T00:58:07;20.40;;;6.93;;
70444;SDS011;57902;49.638;11.070;2023-03-04T01:00:33;22.70;;;6.78;;
70444;SDS011;57902;49.638;11.070;2023-03-04T01:03:00;23.92;;;7.47;;
70444;SDS011;57902;49.638;11.070;2023-03-04T01:05:26;20.85;;;6.85;;
70444;SDS011;57902;49.638;11.070;2023-03-04T01:07:53;19.42;;;7.18;;
70444;SDS011;57902;49.638;11.070;2023-03-04T01:10:19;17.55;;;6.65;;
70444;SDS011;57902;49.638;11.070;2023-03-04T01:12:46;24.35;;;7.00;;
70444;SDS011;57902;49.638;11.070;2023-03-04T01:15:13;17.63;;;6.82;;
70444;SDS011;57902;49.638;11.070;2023-03-04T01:17:40;21.98;;;7.13;;
70444;SDS011;57902;49.638;11.070;2023-03-04T01:20:07;20.67;;;7.03;;
70444;SDS011;57902;49.638;11.070;2023-03-04T01:22:34;24.05;;;7.95;;
70444;SDS011;57902;49.638;11.070;2023-03-04T01:25:01;19.08;;;6.75;;
70444;SDS011;57902;49.638;11.070;2023-03-04T01:27:27;20.60;;;6.55;;
70444;SDS011;57902;49.638;11.070;2023-03-04T01:29:54;19.20;;;6.10;;
70444;SDS011;57902;49.638;11.070;2023-03-04T01:32:20;17.88;;;6.13;;
70444;SDS011;57902;49.638;11.070;2023-03-04T01:34:47;21.23;;;6.55;;
70444;SDS011;57902;49.638;11.070;2023-03-04T01:37:14;16.80;;;6.20;;
70444;SDS011;57902;49.638;11.070;2023-03-04T01:39:40;22.33;;;6.78;;
70444;SDS011;57902;49.638;11.070;2023-03-04T01:42:11;23.33;;;7.00;;
70444;SDS011;57902;49.638;11.070;2023-03-04T01:44:43;18.52;;;6.55;;
70444;SDS011;57902;49.638;11.070;2023-03-04T01:47:10;18.23;;;6.55;;
70444;SDS011;57902;49.638;11.070;2023-03-04T01:49:37;16.70;;;6.50;;
70444;SDS011;57902;49.638;11.070;2023-03-04T01:52:04;17.05;;;6.45;;
70444;SDS011;57902;49.638;11.070;2023-03-04T01:54:31;20.95;;;6.82;;
70444;SDS011;57902;49.638;11.070;2023-03-04T01:56:57;19.88;;;6.97;;
70444;SDS011;57902;49.638;11.070;2023-03-04T01:59:25;17.25;;;6.43;;
70444;SDS011;57902;49.638;11.070;2023-03-04T02:01:57;20.02;;;6.45;;
70444;SDS011;57902;49.638;11.070;2023-03-04T02:06:57;19.23;;;6.20;;
70444;SDS011;57902;49.638;11.070;2023-03-04T02:09:25;20.02;;;6.78;;
70444;SDS011;57902;49.638;11.070;2023-03-04T02:11:51;20.27;;;6.35;;
70444;SDS011;57902;49.638;11.070;2023-03-04T02:14:19;19.15;;;6.85;;
70444;SDS011;57902;49.638;11.070;2023-03-04T02:16:47;18.75;;;6.10;;
70444;SDS011;57902;49.638;11.070;2023-03-04T02:21:42;16.75;;;6.20;;
70444;SDS011;57902;49.638;11.070;2023-03-04T02:24:51;21.95;;;7.07;;
70444;SDS011;57902;49.638;11.070;2023-03-04T02:27:02;18.38;;;6.90;;
70444;SDS011;57902;49.638;11.070;2023-03-04T02:29:31;21.13;;;7.40;;
70444;SDS011;57902;49.638;11.070;2023-03-04T02:31:58;18.35;;;6.82;;
70444;SDS011;57902;49.638;11.070;2023-03-04T02:34:28;20.35;;;6.78;;
70444;SDS011;57902;49.638;11.070;2023-03-04T02:36:57;20.42;;;6.38;;
70444;SDS011;57902;49.638;11.070;2023-03-04T02:39:27;18.30;;;6.10;;
70444;SDS011;57902;49.638;11.070;2023-03-04T02:41:58;20.17;;;6.32;;
70444;SDS011;57902;49.638;11.070;2023-03-04T02:44:27;19.27;;;6.47;;
70444;SDS011;57902;49.638;11.070;2023-03-04T02:46:55;19.50;;;6.43;;
70444;SDS011;57902;49.638;11.070;2023-03-04T02:49:22;17.52;;;6.38;;
70444;SDS011;57902;49.638;11.070;2023-03-04T02:51:52;18.83;;;6.30;;
70444;SDS011;57902;49.638;11.070;2023-03-04T02:54:24;19.63;;;6.20;;
70444;SDS011;57902;49.638;11.070;2023-03-04T02:56:52;17.42;;;6.15;;
70444;SDS011;57902;49.638;11.070;2023-03-04T02:59:19;19.63;;;6.63;;
70444;SDS011;57902;49.638;11.070;2023-03-04T03:01:47;16.95;;;6.25;;
70444;SDS011;57902;49.638;11.070;2023-03-04T03:04:14;17.80;;;6.03;;
70444;SDS011;57902;49.638;11.070;2023-03-04T03:06:41;17.40;;;6.57;;
70444;SDS011;57902;49.638;11.070;2023-03-04T03:09:09;21.25;;;6.25;;
70444;SDS011;57902;49.638;11.070;2023-03-04T03:11:35;17.42;;;6.18;;
70444;SDS011;57902;49.638;11.070;2023-03-04T03:14:02;18.70;;;6.20;;
70444;SDS011;57902;49.638;11.070;2023-03-04T03:16:29;18.40;;;6.05;;
70444;SDS011;57902;49.638;11.070;2023-03-04T03:18:55;15.60;;;5.72;;
70444;SDS011;57902;49.638;11.070;2023-03-04T03:21:22;21.38;;;6.45;;
70444;SDS011;57902;49.638;11.070;2023-03-04T03:23:48;16.67;;;5.70;;
70444;SDS011;57902;49.638;11.070;2023-03-04T03:26:15;18.20;;;6.00;;
70444;SDS011;57902;49.638;11.070;2023-03-04T03:28:41;14.48;;;5.88;;
70444;SDS011;57902;49.638;11.070;2023-03-04T03:31:08;18.13;;;6.05;;
70444;SDS011;57902;49.638;11.070;2023-03-04T03:33:34;14.25;;;5.18;;
70444;SDS011;57902;49.638;11.070;2023-03-04T03:36:01;17.77;;;5.68;;
70444;SDS011;57902;49.638;11.070;2023-03-04T03:38:28;17.98;;;5.68;;
70444;SDS011;57902;49.638;11.070;2023-03-04T03:40:57;17.60;;;5.88;;
70444;SDS011;57902;49.638;11.070;2023-03-04T03:43:24;14.55;;;5.07;;
70444;SDS011;57902;49.638;11.070;2023-03-04T03:45:50;17.20;;;5.93;;
70444;SDS011;57902;49.638;11.070;2023-03-04T03:48:17;16.58;;;5.40;;
70444;SDS011;57902;49.638;11.070;2023-03-04T03:50:44;15.25;;;5.22;;
70444;SDS011;57902;49.638;11.070;2023-03-04T03:53:10;14.85;;;5.18;;
70444;SDS011;57902;49.638;11.070;2023-03-04T03:55:37;15.38;;;5.10;;
70444;SDS011;57902;49.638;11.070;2023-03-04T03:58:04;13.00;;;5.05;;
70444;SDS011;57902;49.638;11.070;2023-03-04T04:00:31;16.88;;;5.97;;
70444;SDS011;57902;49.638;11.070;2023-03-04T04:02:57;20.52;;;5.57;;
70444;SDS011;57902;49.638;11.070;2023-03-04T04:05:25;16.90;;;5.45;;
70444;SDS011;57902;49.638;11.070;2023-03-04T04:07:52;14.60;;;5.90;;
70444;SDS011;57902;49.638;11.070;2023-03-04T04:10:19;16.52;;;5.75;;
70444;SDS011;57902;49.638;11.070;2023-03-04T04:12:46;19.15;;;5.95;;
70444;SDS011;57902;49.638;11.070;2023-03-04T04:15:16;15.23;;;5.38;;
70444;SDS011;57902;49.638;11.070;2023-03-04T04:17:42;17.85;;;5.93;;
70444;SDS011;57902;49.638;11.070;2023-03-04T04:20:09;16.55;;;5.10;;
70444;SDS011;57902;49.638;11.070;2023-03-04T04:22:36;17.33;;;5.28;;
70444;SDS011;57902;49.638;11.070;2023-03-04T04:25:03;16.20;;;5.25;;
70444;SDS011;57902;49.638;11.070;2023-03-04T04:27:30;17.30;;;5.30;;
70444;SDS011;57902;49.638;11.070;2023-03-04T04:29:56;17.08;;;5.80;;
70444;SDS011;57902;49.638;11.070;2023-03-04T04:32:23;17.15;;;5.70;;
70444;SDS011;57902;49.638;11.070;2023-03-04T04:34:49;15.45;;;5.10;;
70444;SDS011;57902;49.638;11.070;2023-03-04T04:37:16;16.27;;;5.57;;
70444;SDS011;57902;49.638;11.070;2023-03-04T04:39:42;16.33;;;5.50;;
70444;SDS011;57902;49.638;11.070;2023-03-04T04:42:11;18.02;;;6.05;;
70444;SDS011;57902;49.638;11.070;2023-03-04T04:44:38;24.40;;;9.75;;
70444;SDS011;57902;49.638;11.070;2023-03-04T04:47:05;19.20;;;6.68;;
70444;SDS011;57902;49.638;11.070;2023-03-04T04:49:32;14.27;;;5.13;;
70444;SDS011;57902;49.638;11.070;2023-03-04T04:51:58;16.13;;;6.40;;
70444;SDS011;57902;49.638;11.070;2023-03-04T04:54:25;18.20;;;5.85;;
70444;SDS011;57902;49.638;11.070;2023-03-04T04:56:52;15.32;;;4.82;;
70444;SDS011;57902;49.638;11.070;2023-03-04T04:59:19;14.68;;;5.43;;
70444;SDS011;57902;49.638;11.070;2023-03-04T05:01:45;15.32;;;5.30;;
70444;SDS011;57902;49.638;11.070;2023-03-04T05:04:12;15.60;;;5.50;;
70444;SDS011;57902;49.638;11.070;2023-03-04T05:06:38;14.63;;;5.10;;
70444;SDS011;57902;49.638;11.070;2023-03-04T05:09:05;17.45;;;5.95;;
70444;SDS011;57902;49.638;11.070;2023-03-04T05:11:32;15.85;;;5.70;;
70444;SDS011;57902;49.638;11.070;2023-03-04T05:13:59;16.63;;;5.35;;
70444;SDS011;57902;49.638;11.070;2023-03-04T05:16:25;16.42;;;5.43;;
70444;SDS011;57902;49.638;11.070;2023-03-04T05:18:51;15.73;;;5.68;;
70444;SDS011;57902;49.638;11.070;2023-03-04T05:21:18;18.90;;;6.43;;
70444;SDS011;57902;49.638;11.070;2023-03-04T05:23:45;15.95;;;5.72;;
70444;SDS011;57902;49.638;11.070;2023-03-04T05:26:12;15.32;;;5.57;;
70444;SDS011;57902;49.638;11.070;2023-03-04T05:28:40;16.77;;;5.88;;
70444;SDS011;57902;49.638;11.070;2023-03-04T05:31:07;15.55;;;5.85;;
70444;SDS011;57902;49.638;11.070;2023-03-04T05:33:34;18.10;;;6.28;;
70444;SDS011;57902;49.638;11.070;2023-03-04T05:36:02;19.48;;;5.72;;
70444;SDS011;57902;49.638;11.070;2023-03-04T05:38:30;17.77;;;6.03;;
70444;SDS011;57902;49.638;11.070;2023-03-04T05:40:57;17.95;;;5.38;;
70444;SDS011;57902;49.638;11.070;2023-03-04T05:43:26;19.10;;;6.57;;
70444;SDS011;57902;49.638;11.070;2023-03-04T05:45:53;21.30;;;6.30;;
70444;SDS011;57902;49.638;11.070;2023-03-04T05:48:20;18.05;;;6.40;;
70444;SDS011;57902;49.638;11.070;2023-03-04T05:50:51;20.27;;;6.25;;
70444;SDS011;57902;49.638;11.070;2023-03-04T05:53:19;20.40;;;6.32;;
70444;SDS011;57902;49.638;11.070;2023-03-04T05:55:46;20.25;;;6.35;;
70444;SDS011;57902;49.638;11.070;2023-03-04T05:58:13;19.42;;;6.53;;
70444;SDS011;57902;49.638;11.070;2023-03-04T06:00:40;20.40;;;6.05;;
70444;SDS011;57902;49.638;11.070;2023-03-04T06:03:07;18.70;;;6.72;;
70444;SDS011;57902;49.638;11.070;2023-03-04T06:05:39;21.80;;;6.93;;
70444;SDS011;57902;49.638;11.070;2023-03-04T06:08:06;17.30;;;6.43;;
70444;SDS011;57902;49.638;11.070;2023-03-04T06:10:32;19.23;;;6.45;;
70444;SDS011;57902;49.638;11.070;2023-03-04T06:12:59;18.02;;;6.10;;
70444;SDS011;57902;49.638;11.070;2023-03-04T06:15:25;22.58;;;6.90;;
70444;SDS011;57902;49.638;11.070;2023-03-04T06:17:52;20.85;;;7.13;;
70444;SDS011;57902;49.638;11.070;2023-03-04T06:20:18;19.52;;;6.53;;
70444;SDS011;57902;49.638;11.070;2023-03-04T06:22:45;21.58;;;7.22;;
70444;SDS011;57902;49.638;11.070;2023-03-04T06:25:11;20.50;;;6.50;;
70444;SDS011;57902;49.638;11.070;2023-03-04T06:27:38;19.95;;;6.20;;
70444;SDS011;57902;49.638;11.070;2023-03-04T06:30:04;19.88;;;7.05;;
70444;SDS011;57902;49.638;11.070;2023-03-04T06:32:31;19.70;;;6.60;;
70444;SDS011;57902;49.638;11.070;2023-03-04T06:34:58;21.20;;;7.43;;
70444;SDS011;57902;49.638;11.070;2023-03-04T06:37:25;18.77;;;7.00;;
70444;SDS011;57902;49.638;11.070;2023-03-04T06:39:51;16.17;;;6.10;;
70444;SDS011;57902;49.638;11.070;2023-03-04T06:42:18;22.02;;;6.95;;
70444;SDS011;57902;49.638;11.070;2023-03-04T06:44:44;18.63;;;6.82;;
70444;SDS011;57902;49.638;11.070;2023-03-04T06:47:11;20.20;;;6.70;;
70444;SDS011;57902;49.638;11.070;2023-03-04T06:49:37;17.35;;;5.95;;
70444;SDS011;57902;49.638;11.070;2023-03-04T06:52:04;17.77;;;5.80;;
70444;SDS011;57902;49.638;11.070;2023-03-04T06:54:30;16.25;;;5.93;;
70444;SDS011;57902;49.638;11.070;2023-03-04T06:56:56;17.95;;;6.25;;
70444;SDS011;57902;49.638;11.070;2023-03-04T06:59:23;21.02;;;6.47;;
70444;SDS011;57902;49.638;11.070;2023-03-04T07:01:50;20.20;;;6.80;;
70444;SDS011;57902;49.638;11.070;2023-03-04T07:04:16;20.95;;;6.97;;
70444;SDS011;57902;49.638;11.070;2023-03-04T07:06:43;19.10;;;6.15;;
70444;SDS011;57902;49.638;11.070;2023-03-04T07:09:09;24.33;;;6.65;;
70444;SDS011;57902;49.638;11.070;2023-03-04T07:11:36;18.23;;;6.60;;
70444;SDS011;57902;49.638;11.070;2023-03-04T07:14:02;21.30;;;6.70;;
70444;SDS011;57902;49.638;11.070;2023-03-04T07:16:29;21.08;;;7.03;;
70444;SDS011;57902;49.638;11.070;2023-03-04T07:18:55;22.50;;;6.68;;
70444;SDS011;57902;49.638;11.070;2023-03-04T07:21:22;18.83;;;6.28;;
70444;SDS011;57902;49.638;11.070;2023-03-04T07:23:48;23.15;;;6.85;;
70444;SDS011;57902;49.638;11.070;2023-03-04T07:26:15;21.52;;;7.18;;
70444;SDS011;57902;49.638;11.070;2023-03-04T07:28:42;19.42;;;6.55;;
70444;SDS011;57902;49.638;11.070;2023-03-04T07:31:10;19.65;;;6.95;;
70444;SDS011;57902;49.638;11.070;2023-03-04T07:33:38;19.83;;;6.50;;
70444;SDS011;57902;49.638;11.070;2023-03-04T07:36:05;20.83;;;6.70;;
70444;SDS011;57902;49.638;11.070;2023-03-04T07:38:31;18.83;;;6.47;;
70444;SDS011;57902;49.638;11.070;2023-03-04T07:40:58;17.67;;;6.47;;
70444;SDS011;57902;49.638;11.070;2023-03-04T07:43:25;21.10;;;6.60;;
70444;SDS011;57902;49.638;11.070;2023-03-04T07:45:51;19.08;;;6.00;;
70444;SDS011;57902;49.638;11.070;2023-03-04T07:48:18;19.98;;;6.55;;
70444;SDS011;57902;49.638;11.070;2023-03-04T07:50:44;20.65;;;7.30;;
70444;SDS011;57902;49.638;11.070;2023-03-04T07:53:11;18.83;;;5.93;;
70444;SDS011;57902;49.638;11.070;2023-03-04T07:55:37;22.83;;;6.68;;
70444;SDS011;57902;49.638;11.070;2023-03-04T07:58:03;20.17;;;6.95;;
70444;SDS011;57902;49.638;11.070;2023-03-04T08:00:30;21.13;;;7.20;;
70444;SDS011;57902;49.638;11.070;2023-03-04T08:02:57;25.35;;;6.38;;
70444;SDS011;57902;49.638;11.070;2023-03-04T08:05:23;18.42;;;6.55;;
70444;SDS011;57902;49.638;11.070;2023-03-04T08:07:49;22.08;;;6.97;;
70444;SDS011;57902;49.638;11.070;2023-03-04T08:10:16;28.85;;;7.85;;
70444;SDS011;57902;49.638;11.070;2023-03-04T08:12:42;22.27;;;7.57;;
70444;SDS011;57902;49.638;11.070;2023-03-04T08:15:09;21.33;;;7.10;;
70444;SDS011;57902;49.638;11.070;2023-03-04T08:17:36;22.85;;;7.35;;
70444;SDS011;57902;49.638;11.070;2023-03-04T08:20:03;26.02;;;6.53;;
70444;SDS011;57902;49.638;11.070;2023-03-04T08:22:29;24.63;;;7.60;;
70444;SDS011;57902;49.638;11.070;2023-03-04T08:24:56;23.80;;;7.32;;
70444;SDS011;57902;49.638;11.070;2023-03-04T08:27:22;25.30;;;8.40;;
70444;SDS011;57902;49.638;11.070;2023-03-04T08:29:49;27.88;;;7.68;;
70444;SDS011;57902;49.638;11.070;2023-03-04T08:32:15;23.15;;;7.50;;
70444;SDS011;57902;49.638;11.070;2023-03-04T08:34:42;23.77;;;7.38;;
70444;SDS011;57902;49.638;11.070;2023-03-04T08:37:08;23.70;;;8.88;;
70444;SDS011;57902;49.638;11.070;2023-03-04T08:39:35;37.75;;;8.73;;
70444;SDS011;57902;49.638;11.070;2023-03-04T08:42:02;23.70;;;7.95;;
70444;SDS011;57902;49.638;11.070;2023-03-04T08:44:29;27.73;;;8.43;;
70444;SDS011;57902;49.638;11.070;2023-03-04T08:46:55;21.63;;;7.72;;
70444;SDS011;57902;49.638;11.070;2023-03-04T08:49:22;21.92;;;7.93;;
70444;SDS011;57902;49.638;11.070;2023-03-04T08:51:48;19.85;;;7.15;;
70444;SDS011;57902;49.638;11.070;2023-03-04T08:54:15;25.13;;;7.88;;
70444;SDS011;57902;49.638;11.070;2023-03-04T08:56:41;21.75;;;7.70;;
70444;SDS011;57902;49.638;11.070;2023-03-04T08:59:08;22.13;;;7.68;;
70444;SDS011;57902;49.638;11.070;2023-03-04T09:01:34;24.90;;;7.97;;
70444;SDS011;57902;49.638;11.070;2023-03-04T09:04:01;25.45;;;8.00;;
70444;SDS011;57902;49.638;11.070;2023-03-04T09:06:27;21.13;;;6.97;;
70444;SDS011;57902;49.638;11.070;2023-03-04T09:08:54;19.67;;;7.40;;
70444;SDS011;57902;49.638;11.070;2023-03-04T09:11:20;22.05;;;7.93;;
70444;SDS011;57902;49.638;11.070;2023-03-04T09:13:46;22.70;;;7.32;;
70444;SDS011;57902;49.638;11.070;2023-03-04T09:16:13;21.25;;;7.22;;
70444;SDS011;57902;49.638;11.070;2023-03-04T09:24:59;25.40;;;8.32;;
70444;SDS011;57902;49.638;11.070;2023-03-04T09:27:26;25.15;;;8.13;;
70444;SDS011;57902;49.638;11.070;2023-03-04T09:29:52;22.67;;;9.02;;
70444;SDS011;57902;49.638;11.070;2023-03-04T09:32:18;24.50;;;9.23;;
70444;SDS011;57902;49.638;11.070;2023-03-04T09:34:45;19.80;;;7.72;;
70444;SDS011;57902;49.638;11.070;2023-03-04T09:37:11;22.92;;;8.50;;
70444;SDS011;57902;49.638;11.070;2023-03-04T09:39:38;26.88;;;8.60;;
70444;SDS011;57902;49.638;11.070;2023-03-04T09:42:05;22.77;;;8.43;;
70444;SDS011;57902;49.638;11.070;2023-03-04T09:44:40;20.65;;;7.38;;
70444;SDS011;57902;49.638;11.070;2023-03-04T09:47:16;24.70;;;8.35;;
70444;SDS011;57902;49.638;11.070;2023-03-04T09:49:56;23.30;;;8.15;;
70444;SDS011;57902;49.638;11.070;2023-03-04T09:55:36;24.25;;;7.55;;
70444;SDS011;57902;49.638;11.070;2023-03-04T09:58:08;27.30;;;7.55;;
70444;SDS011;57902;49.638;11.070;2023-03-04T10:06:01;19.25;;;7.90;;
70444;SDS011;57902;49.638;11.070;2023-03-04T10:14:46;20.40;;;8.50;;
70444;SDS011;57902;49.638;11.070;2023-03-04T10:19:43;26.52;;;8.52;;
70444;SDS011;57902;49.638;11.070;2023-03-04T10:25:29;19.77;;;7.90;;
70444;SDS011;57902;49.638;11.070;2023-03-04T10:27:58;23.38;;;7.85;;
70444;SDS011;57902;49.638;11.070;2023-03-04T10:33:28;18.67;;;7.43;;
70444;SDS011;57902;49.638;11.070;2023-03-04T10:38:37;22.02;;;7.82;;
70444;SDS011;57902;49.638;11.070;2023-03-04T10:41:15;18.98;;;7.50;;
70444;SDS011;57902;49.638;11.070;2023-03-04T10:43:49;19.17;;;6.93;;
70444;SDS011;57902;49.638;11.070;2023-03-04T10:46:25;19.20;;;6.97;;
70444;SDS011;57902;49.638;11.070;2023-03-04T10:48:52;19.52;;;7.53;;
70444;SDS011;57902;49.638;11.070;2023-03-04T10:51:20;27.00;;;8.48;;
70444;SDS011;57902;49.638;11.070;2023-03-04T10:54:38;19.20;;;7.65;;
70444;SDS011;57902;49.638;11.070;2023-03-04T10:56:52;17.60;;;7.25;;
70444;SDS011;57902;49.638;11.070;2023-03-04T10:59:40;24.42;;;7.85;;
70444;SDS011;57902;49.638;11.070;2023-03-04T11:02:15;22.33;;;8.57;;
70444;SDS011;57902;49.638;11.070;2023-03-04T11:04:48;23.88;;;8.75;;
70444;SDS011;57902;49.638;11.070;2023-03-04T11:07:20;20.92;;;8.05;;
70444;SDS011;57902;49.638;11.070;2023-03-04T11:09:48;19.08;;;7.57;;
70444;SDS011;57902;49.638;11.070;2023-03-04T11:12:16;17.45;;;7.88;;
70444;SDS011;57902;49.638;11.070;2023-03-04T11:14:46;22.17;;;8.32;;
70444;SDS011;57902;49.638;11.070;2023-03-04T11:17:18;20.90;;;7.20;;
70444;SDS011;57902;49.638;11.070;2023-03-04T11:22:31;17.45;;;7.40;;
70444;SDS011;57902;49.638;11.070;2023-03-04T11:25:02;20.58;;;7.60;;
70444;SDS011;57902;49.638;11.070;2023-03-04T11:27:37;21.13;;;7.95;;
70444;SDS011;57902;49.638;11.070;2023-03-04T11:38:45;17.25;;;7.07;;
70444;SDS011;57902;49.638;11.070;2023-03-04T11:44:02;22.25;;;8.13;;
70444;SDS011;57902;49.638;11.070;2023-03-04T11:55:35;18.83;;;7.35;;
70444;SDS011;57902;49.638;11.070;2023-03-04T11:58:13;16.63;;;7.07;;
70444;SDS011;57902;49.638;11.070;2023-03-04T12:01:19;17.15;;;7.38;;
70444;SDS011;57902;49.638;11.070;2023-03-04T12:04:23;19.55;;;7.00;;
70444;SDS011;57902;49.638;11.070;2023-03-04T12:12:45;24.17;;;8.73;;
70444;SDS011;57902;49.638;11.070;2023-03-04T12:26:37;17.55;;;7.57;;
70444;SDS011;57902;49.638;11.070;2023-03-04T12:31:47;20.30;;;7.97;;
70444;SDS011;57902;49.638;11.070;2023-03-04T12:34:30;25.63;;;9.10;;
70444;SDS011;57902;49.638;11.070;2023-03-04T12:45:31;18.80;;;7.38;;
70444;SDS011;57902;49.638;11.070;2023-03-04T12:50:53;17.27;;;7.47;;
70444;SDS011;57902;49.638;11.070;2023-03-04T12:53:54;22.73;;;7.05;;
70444;SDS011;57902;49.638;11.070;2023-03-04T12:56:36;21.05;;;8.00;;
70444;SDS011;57902;49.638;11.070;2023-03-04T12:59:13;24.35;;;7.20;;
70444;SDS011;57902;49.638;11.070;2023-03-04T13:01:44;16.48;;;6.80;;
70444;SDS011;57902;49.638;11.070;2023-03-04T13:10:08;20.27;;;6.55;;
70444;SDS011;57902;49.638;11.070;2023-03-04T13:12:51;18.27;;;6.85;;
70444;SDS011;57902;49.638;11.070;2023-03-04T13:17:51;15.57;;;6.55;;
70444;SDS011;57902;49.638;11.070;2023-03-04T13:20:23;16.05;;;6.80;;
70444;SDS011;57902;49.638;11.070;2023-03-04T13:25:33;15.75;;;6.68;;
70444;SDS011;57902;49.638;11.070;2023-03-04T13:51:40;13.68;;;5.25;;
70444;SDS011;57902;49.638;11.070;2023-03-04T13:59:47;18.23;;;5.03;;
70444;SDS011;57902;49.638;11.070;2023-03-04T14:02:16;24.60;;;5.35;;
70444;SDS011;57902;49.638;11.070;2023-03-04T14:07:30;16.63;;;4.57;;
70444;SDS011;57902;49.638;11.070;2023-03-04T14:12:43;14.35;;;5.05;;
70444;SDS011;57902;49.638;11.070;2023-03-04T14:17:39;15.10;;;5.28;;
70444;SDS011;57902;49.638;11.070;2023-03-04T14:20:25;20.80;;;5.45;;
70444;SDS011;57902;49.638;11.070;2023-03-04T14:23:00;10.93;;;4.53;;
70444;SDS011;57902;49.638;11.070;2023-03-04T14:25:30;13.45;;;4.60;;
70444;SDS011;57902;49.638;11.070;2023-03-04T14:28:08;12.60;;;5.32;;
70444;SDS011;57902;49.638;11.070;2023-03-04T14:30:38;15.45;;;5.70;;
70444;SDS011;57902;49.638;11.070;2023-03-04T14:33:13;15.73;;;5.47;;
70444;SDS011;57902;49.638;11.070;2023-03-04T14:35:47;19.98;;;6.38;;
70444;SDS011;57902;49.638;11.070;2023-03-04T14:38:20;17.20;;;6.38;;
70444;SDS011;57902;49.638;11.070;2023-03-04T14:40:54;31.42;;;7.68;;
70444;SDS011;57902;49.638;11.070;2023-03-04T14:43:26;17.00;;;5.85;;
70444;SDS011;57902;49.638;11.070;2023-03-04T14:45:57;17.45;;;6.35;;
70444;SDS011;57902;49.638;11.070;2023-03-04T14:48:27;18.85;;;6.88;;
70444;SDS011;57902;49.638;11.070;2023-03-04T14:50:56;17.48;;;6.45;;
70444;SDS011;57902;49.638;11.070;2023-03-04T14:53:25;19.00;;;6.57;;
70444;SDS011;57902;49.638;11.070;2023-03-04T14:58:21;16.35;;;6.07;;
70444;SDS011;57902;49.638;11.070;2023-03-04T15:01:01;18.30;;;6.57;;
70444;SDS011;57902;49.638;11.070;2023-03-04T15:03:55;21.98;;;7.20;;
70444;SDS011;57902;49.638;11.070;2023-03-04T15:06:25;21.05;;;6.65;;
70444;SDS011;57902;49.638;11.070;2023-03-04T15:08:58;17.30;;;6.18;;
70444;SDS011;57902;49.638;11.070;2023-03-04T15:11:47;16.45;;;6.20;;
70444;SDS011;57902;49.638;11.070;2023-03-04T15:17:56;18.88;;;6.68;;
70444;SDS011;57902;49.638;11.070;2023-03-04T15:22:33;20.20;;;6.80;;
70444;SDS011;57902;49.638;11.070;2023-03-04T15:25:00;27.35;;;7.82;;
70444;SDS011;57902;49.638;11.070;2023-03-04T15:27:27;17.35;;;6.70;;
70444;SDS011;57902;49.638;11.070;2023-03-04T15:29:56;20.17;;;6.57;;
70444;SDS011;57902;49.638;11.070;2023-03-04T15:32:25;21.33;;;7.60;;
70444;SDS011;57902;49.638;11.070;2023-03-04T15:34:51;20.17;;;7.15;;
70444;SDS011;57902;49.638;11.070;2023-03-04T15:37:19;18.63;;;6.72;;
70444;SDS011;57902;49.638;11.070;2023-03-04T15:39:48;19.90;;;6.68;;
70444;SDS011;57902;49.638;11.070;2023-03-04T15:42:15;16.23;;;6.85;;
70444;SDS011;57902;49.638;11.070;2023-03-04T15:44:42;23.65;;;6.68;;
70444;SDS011;57902;49.638;11.070;2023-03-04T15:47:09;21.48;;;7.03;;
70444;SDS011;57902;49.638;11.070;2023-03-04T15:49:38;20.85;;;7.57;;
70444;SDS011;57902;49.638;11.070;2023-03-04T15:52:08;17.73;;;6.78;;
70444;SDS011;57902;49.638;11.070;2023-03-04T15:54:40;18.50;;;6.38;;
70444;SDS011;57902;49.638;11.070;2023-03-04T15:57:10;19.13;;;6.70;;
70444;SDS011;57902;49.638;11.070;2023-03-04T15:59:50;24.65;;;7.13;;
70444;SDS011;57902;49.638;11.070;2023-03-04T16:02:20;25.98;;;7.03;;
70444;SDS011;57902;49.638;11.070;2023-03-04T16:04:49;18.33;;;7.50;;
70444;SDS011;57902;49.638;11.070;2023-03-04T16:07:17;17.85;;;7.25;;
70444;SDS011;57902;49.638;11.070;2023-03-04T16:09:45;16.75;;;6.72;;
70444;SDS011;57902;49.638;11.070;2023-03-04T16:12:17;20.20;;;6.60;;
70444;SDS011;57902;49.638;11.070;2023-03-04T16:14:43;20.98;;;7.40;;
70444;SDS011;57902;49.638;11.070;2023-03-04T16:17:12;19.98;;;7.53;;
70444;SDS011;57902;49.638;11.070;2023-03-04T16:19:41;21.75;;;6.93;;
70444;SDS011;57902;49.638;11.070;2023-03-04T16:22:14;17.85;;;7.35;;
70444;SDS011;57902;49.638;11.070;2023-03-04T16:24:42;21.88;;;6.97;;
70444;SDS011;57902;49.638;11.070;2023-03-04T16:27:09;20.48;;;6.90;;
70444;SDS011;57902;49.638;11.070;2023-03-04T16:29:38;17.75;;;6.95;;
70444;SDS011;57902;49.638;11.070;2023-03-04T16:32:04;21.30;;;7.50;;
70444;SDS011;57902;49.638;11.070;2023-03-04T16:34:31;21.15;;;6.82;;
70444;SDS011;57902;49.638;11.070;2023-03-04T16:36:58;18.38;;;6.78;;
70444;SDS011;57902;49.638;11.070;2023-03-04T16:39:30;21.38;;;6.70;;
70444;SDS011;57902;49.638;11.070;2023-03-04T16:41:56;24.48;;;6.82;;
70444;SDS011;57902;49.638;11.070;2023-03-04T16:44:23;22.30;;;7.63;;
70444;SDS011;57902;49.638;11.070;2023-03-04T16:46:50;19.45;;;7.00;;
70444;SDS011;57902;49.638;11.070;2023-03-04T16:49:16;23.10;;;6.97;;
70444;SDS011;57902;49.638;11.070;2023-03-04T16:51:45;28.02;;;7.20;;
70444;SDS011;57902;49.638;11.070;2023-03-04T16:54:18;15.60;;;6.43;;
70444;SDS011;57902;49.638;11.070;2023-03-04T16:56:51;18.13;;;7.25;;
70444;SDS011;57902;49.638;11.070;2023-03-04T16:59:17;17.45;;;7.38;;